sensor_id;sensor_type;location;lat;lon;timestamp;temperature;humidity
44229;DHT22;29904;51.058;5.378;2023-05-10T00:00:53;13.90;99.90
44229;DHT22;29904;51.058;5.378;2023-05-10T00:03:19;13.80;99.90
44229;DHT22;29904;51.058;5.378;2023-05-10T00:05:44;13.80;99.90
44229;DHT22;29904;51.058;5.378;2023-05-10T00:08:10;13.90;99.90
44229;DHT22;29904;51.058;5.378;2023-05-10T00:10:36;13.90;99.90
44229;DHT22;29904;51.058;5.378;2023-05-10T00:13:02;13.80;99.90
44229;DHT22;29904;51.058;5.378;2023-05-10T00:15:28;13.80;99.90
44229;DHT22;29904;51.058;5.378;2023-05-10T00:17:56;13.90;99.90
44229;DHT22;29904;51.058;5.378;2023-05-10T00:20:22;13.80;99.90
44229;DHT22;29904;51.058;5.378;2023-05-10T00:22:48;13.90;99.90
44229;DHT22;29904;51.058;5.378;2023-05-10T00:25:13;13.90;99.90
44229;DHT22;29904;51.058;5.378;2023-05-10T00:27:39;13.90;99.90
44229;DHT22;29904;51.058;5.378;2023-05-10T00:30:06;13.90;99.90
44229;DHT22;29904;51.058;5.378;2023-05-10T00:32:32;13.90;99.90
44229;DHT22;29904;51.058;5.378;2023-05-10T00:34:58;13.90;99.90
44229;DHT22;29904;51.058;5.378;2023-05-10T00:37:24;13.90;99.90
44229;DHT22;29904;51.058;5.378;2023-05-10T00:39:49;13.90;99.90
44229;DHT22;29904;51.058;5.378;2023-05-10T00:42:15;13.90;99.90
44229;DHT22;29904;51.058;5.378;2023-05-10T00:44:41;13.90;99.90
44229;DHT22;29904;51.058;5.378;2023-05-10T00:47:07;13.90;99.90
44229;DHT22;29904;51.058;5.378;2023-05-10T00:49:34;13.90;99.90
44229;DHT22;29904;51.058;5.378;2023-05-10T00:52:00;13.90;99.90
44229;DHT22;29904;51.058;5.378;2023-05-10T00:54:27;13.90;99.90
44229;DHT22;29904;51.058;5.378;2023-05-10T00:56:53;13.90;99.90
44229;DHT22;29904;51.058;5.378;2023-05-10T00:59:19;13.90;99.90
44229;DHT22;29904;51.058;5.378;2023-05-10T01:01:45;13.90;99.90
44229;DHT22;29904;51.058;5.378;2023-05-10T01:04:14;13.90;99.90
44229;DHT22;29904;51.058;5.378;2023-05-10T01:06:41;14.00;99.90
44229;DHT22;29904;51.058;5.378;2023-05-10T01:09:07;14.00;99.90
44229;DHT22;29904;51.058;5.378;2023-05-10T01:11:35;14.00;99.90
44229;DHT22;29904;51.058;5.378;2023-05-10T01:14:02;14.00;99.90
44229;DHT22;29904;51.058;5.378;2023-05-10T01:16:32;14.00;99.90
44229;DHT22;29904;51.058;5.378;2023-05-10T01:18:59;14.00;99.90
44229;DHT22;29904;51.058;5.378;2023-05-10T01:21:33;14.00;99.90
44229;DHT22;29904;51.058;5.378;2023-05-10T01:46:36;13.90;99.90
44229;DHT22;29904;51.058;5.378;2023-05-10T01:49:07;13.80;99.90
44229;DHT22;29904;51.058;5.378;2023-05-10T01:51:43;13.80;99.90
44229;DHT22;29904;51.058;5.378;2023-05-10T01:54:12;13.80;99.90
44229;DHT22;29904;51.058;5.378;2023-05-10T01:56:39;13.80;99.90
44229;DHT22;29904;51.058;5.378;2023-05-10T01:59:11;13.90;99.90
44229;DHT22;29904;51.058;5.378;2023-05-10T02:01:37;13.90;99.90
44229;DHT22;29904;51.058;5.378;2023-05-10T02:04:06;13.90;99.90
44229;DHT22;29904;51.058;5.378;2023-05-10T02:06:33;13.80;99.90
44229;DHT22;29904;51.058;5.378;2023-05-10T02:09:01;13.80;99.90
44229;DHT22;29904;51.058;5.378;2023-05-10T02:11:28;13.80;99.90
44229;DHT22;29904;51.058;5.378;2023-05-10T02:13:55;13.90;99.90
44229;DHT22;29904;51.058;5.378;2023-05-10T02:16:24;13.80;99.90
44229;DHT22;29904;51.058;5.378;2023-05-10T02:18:52;13.80;99.90
44229;DHT22;29904;51.058;5.378;2023-05-10T02:21:19;13.80;99.90
44229;DHT22;29904;51.058;5.378;2023-05-10T02:23:46;13.70;99.90
44229;DHT22;29904;51.058;5.378;2023-05-10T02:26:14;13.70;99.90
44229;DHT22;29904;51.058;5.378;2023-05-10T02:28:42;13.80;99.90
44229;DHT22;29904;51.058;5.378;2023-05-10T02:31:09;13.70;99.90
44229;DHT22;29904;51.058;5.378;2023-05-10T02:33:38;13.70;99.90
44229;DHT22;29904;51.058;5.378;2023-05-10T02:36:05;13.70;99.90
44229;DHT22;29904;51.058;5.378;2023-05-10T02:38:33;13.60;99.90
44229;DHT22;29904;51.058;5.378;2023-05-10T02:41:00;13.60;99.90
44229;DHT22;29904;51.058;5.378;2023-05-10T02:43:28;13.70;99.90
44229;DHT22;29904;51.058;5.378;2023-05-10T02:45:55;13.70;99.90
44229;DHT22;29904;51.058;5.378;2023-05-10T02:48:21;13.60;99.90
44229;DHT22;29904;51.058;5.378;2023-05-10T02:50:47;13.60;99.90
44229;DHT22;29904;51.058;5.378;2023-05-10T02:53:21;13.60;99.90
44229;DHT22;29904;51.058;5.378;2023-05-10T02:55:51;13.60;99.90
44229;DHT22;29904;51.058;5.378;2023-05-10T02:58:18;13.60;99.90
44229;DHT22;29904;51.058;5.378;2023-05-10T03:00:47;13.60;99.90
44229;DHT22;29904;51.058;5.378;2023-05-10T03:03:12;13.60;99.90
44229;DHT22;29904;51.058;5.378;2023-05-10T03:05:38;13.60;99.90
44229;DHT22;29904;51.058;5.378;2023-05-10T03:08:04;13.60;99.90
44229;DHT22;29904;51.058;5.378;2023-05-10T03:10:32;13.60;99.90
44229;DHT22;29904;51.058;5.378;2023-05-10T03:15:42;13.60;99.90
44229;DHT22;29904;51.058;5.378;2023-05-10T03:18:23;13.60;99.90
44229;DHT22;29904;51.058;5.378;2023-05-10T03:20:59;13.60;99.90
44229;DHT22;29904;51.058;5.378;2023-05-10T03:23:43;13.60;99.90
44229;DHT22;29904;51.058;5.378;2023-05-10T03:26:09;13.70;99.90
44229;DHT22;29904;51.058;5.378;2023-05-10T03:28:35;13.60;99.90
44229;DHT22;29904;51.058;5.378;2023-05-10T03:31:03;13.70;99.90
44229;DHT22;29904;51.058;5.378;2023-05-10T03:33:30;13.60;99.90
44229;DHT22;29904;51.058;5.378;2023-05-10T03:35:56;13.60;99.90
44229;DHT22;29904;51.058;5.378;2023-05-10T03:38:21;13.60;99.90
44229;DHT22;29904;51.058;5.378;2023-05-10T03:40:47;13.70;99.90
44229;DHT22;29904;51.058;5.378;2023-05-10T03:43:13;13.60;99.90
44229;DHT22;29904;51.058;5.378;2023-05-10T03:45:38;13.70;99.90
44229;DHT22;29904;51.058;5.378;2023-05-10T03:48:04;13.70;99.90
44229;DHT22;29904;51.058;5.378;2023-05-10T03:50:30;13.70;99.90
44229;DHT22;29904;51.058;5.378;2023-05-10T03:52:56;13.70;99.90
44229;DHT22;29904;51.058;5.378;2023-05-10T03:55:23;13.70;99.90
44229;DHT22;29904;51.058;5.378;2023-05-10T03:57:48;13.70;99.90
44229;DHT22;29904;51.058;5.378;2023-05-10T04:00:15;13.70;99.90
44229;DHT22;29904;51.058;5.378;2023-05-10T04:02:41;13.70;99.90
44229;DHT22;29904;51.058;5.378;2023-05-10T04:05:07;13.70;99.90
44229;DHT22;29904;51.058;5.378;2023-05-10T04:07:33;13.70;99.90
44229;DHT22;29904;51.058;5.378;2023-05-10T04:09:59;13.70;99.90
44229;DHT22;29904;51.058;5.378;2023-05-10T04:12:24;13.70;99.90
44229;DHT22;29904;51.058;5.378;2023-05-10T04:14:50;13.70;99.90
44229;DHT22;29904;51.058;5.378;2023-05-10T04:17:16;13.70;99.90
44229;DHT22;29904;51.058;5.378;2023-05-10T04:19:42;13.70;99.90
44229;DHT22;29904;51.058;5.378;2023-05-10T04:22:07;13.70;99.90
44229;DHT22;29904;51.058;5.378;2023-05-10T04:24:33;13.70;99.90
44229;DHT22;29904;51.058;5.378;2023-05-10T04:26:59;13.70;99.90
44229;DHT22;29904;51.058;5.378;2023-05-10T04:29:25;13.70;99.90
44229;DHT22;29904;51.058;5.378;2023-05-10T04:31:52;13.70;99.90
44229;DHT22;29904;51.058;5.378;2023-05-10T04:34:20;13.70;99.90
44229;DHT22;29904;51.058;5.378;2023-05-10T04:36:46;13.80;99.90
44229;DHT22;29904;51.058;5.378;2023-05-10T04:39:11;13.80;99.90
44229;DHT22;29904;51.058;5.378;2023-05-10T04:41:38;13.80;99.90
44229;DHT22;29904;51.058;5.378;2023-05-10T04:44:04;13.80;99.90
44229;DHT22;29904;51.058;5.378;2023-05-10T04:46:29;13.80;99.90
44229;DHT22;29904;51.058;5.378;2023-05-10T04:48:55;13.80;99.90
44229;DHT22;29904;51.058;5.378;2023-05-10T04:51:21;13.80;99.90
44229;DHT22;29904;51.058;5.378;2023-05-10T04:53:46;13.80;99.90
44229;DHT22;29904;51.058;5.378;2023-05-10T04:56:12;13.80;99.90
44229;DHT22;29904;51.058;5.378;2023-05-10T04:58:38;13.80;99.90
44229;DHT22;29904;51.058;5.378;2023-05-10T05:01:07;13.80;99.90
44229;DHT22;29904;51.058;5.378;2023-05-10T05:03:34;13.80;99.90
44229;DHT22;29904;51.058;5.378;2023-05-10T05:06:00;13.80;99.90
44229;DHT22;29904;51.058;5.378;2023-05-10T05:08:26;13.80;99.90
44229;DHT22;29904;51.058;5.378;2023-05-10T05:10:52;13.80;99.90
44229;DHT22;29904;51.058;5.378;2023-05-10T05:13:18;13.80;99.90
44229;DHT22;29904;51.058;5.378;2023-05-10T05:15:44;13.80;99.90
44229;DHT22;29904;51.058;5.378;2023-05-10T05:18:10;13.70;99.90
44229;DHT22;29904;51.058;5.378;2023-05-10T05:20:35;13.70;99.90
44229;DHT22;29904;51.058;5.378;2023-05-10T05:23:01;13.60;99.90
44229;DHT22;29904;51.058;5.378;2023-05-10T05:25:27;13.60;99.90
44229;DHT22;29904;51.058;5.378;2023-05-10T05:27:53;13.60;99.90
44229;DHT22;29904;51.058;5.378;2023-05-10T05:30:18;13.60;99.90
44229;DHT22;29904;51.058;5.378;2023-05-10T05:32:44;13.40;99.90
44229;DHT22;29904;51.058;5.378;2023-05-10T05:35:10;13.30;99.90
44229;DHT22;29904;51.058;5.378;2023-05-10T05:37:36;13.30;99.90
44229;DHT22;29904;51.058;5.378;2023-05-10T05:40:03;13.20;99.90
44229;DHT22;29904;51.058;5.378;2023-05-10T05:42:28;12.80;99.90
44229;DHT22;29904;51.058;5.378;2023-05-10T05:44:56;13.20;99.90
44229;DHT22;29904;51.058;5.378;2023-05-10T05:47:21;13.30;99.90
44229;DHT22;29904;51.058;5.378;2023-05-10T05:49:47;13.30;99.90
44229;DHT22;29904;51.058;5.378;2023-05-10T05:52:13;13.40;99.90
44229;DHT22;29904;51.058;5.378;2023-05-10T05:54:39;13.50;99.90
44229;DHT22;29904;51.058;5.378;2023-05-10T05:57:05;13.60;99.90
44229;DHT22;29904;51.058;5.378;2023-05-10T05:59:31;13.60;99.90
44229;DHT22;29904;51.058;5.378;2023-05-10T06:01:56;13.70;99.90
44229;DHT22;29904;51.058;5.378;2023-05-10T06:04:22;13.80;99.90
44229;DHT22;29904;51.058;5.378;2023-05-10T06:06:48;13.90;99.90
44229;DHT22;29904;51.058;5.378;2023-05-10T06:09:14;14.00;99.90
44229;DHT22;29904;51.058;5.378;2023-05-10T06:11:40;14.00;99.90
44229;DHT22;29904;51.058;5.378;2023-05-10T06:14:05;14.10;99.90
44229;DHT22;29904;51.058;5.378;2023-05-10T06:16:33;14.30;99.90
44229;DHT22;29904;51.058;5.378;2023-05-10T06:18:59;14.40;99.90
44229;DHT22;29904;51.058;5.378;2023-05-10T06:21:25;14.40;99.90
44229;DHT22;29904;51.058;5.378;2023-05-10T06:23:51;14.60;99.90
44229;DHT22;29904;51.058;5.378;2023-05-10T06:26:16;14.70;99.90
44229;DHT22;29904;51.058;5.378;2023-05-10T06:28:42;14.70;99.90
44229;DHT22;29904;51.058;5.378;2023-05-10T06:31:08;14.80;99.90
44229;DHT22;29904;51.058;5.378;2023-05-10T06:33:34;14.80;99.90
44229;DHT22;29904;51.058;5.378;2023-05-10T06:36:00;14.90;99.90
44229;DHT22;29904;51.058;5.378;2023-05-10T06:38:25;14.90;99.90
44229;DHT22;29904;51.058;5.378;2023-05-10T06:40:51;15.00;99.90
44229;DHT22;29904;51.058;5.378;2023-05-10T06:43:17;14.90;99.90
44229;DHT22;29904;51.058;5.378;2023-05-10T06:45:43;14.90;99.90
44229;DHT22;29904;51.058;5.378;2023-05-10T06:48:08;14.90;99.90
44229;DHT22;29904;51.058;5.378;2023-05-10T06:50:34;14.80;99.90
44229;DHT22;29904;51.058;5.378;2023-05-10T06:53:00;14.70;99.90
44229;DHT22;29904;51.058;5.378;2023-05-10T06:55:27;14.70;99.90
44229;DHT22;29904;51.058;5.378;2023-05-10T06:57:54;14.60;99.90
44229;DHT22;29904;51.058;5.378;2023-05-10T07:00:20;14.60;99.90
44229;DHT22;29904;51.058;5.378;2023-05-10T07:02:46;14.50;99.90
44229;DHT22;29904;51.058;5.378;2023-05-10T07:05:12;14.40;99.90
44229;DHT22;29904;51.058;5.378;2023-05-10T07:07:38;14.40;99.90
44229;DHT22;29904;51.058;5.378;2023-05-10T07:10:05;14.30;99.90
44229;DHT22;29904;51.058;5.378;2023-05-10T07:12:31;14.30;99.90
44229;DHT22;29904;51.058;5.378;2023-05-10T07:14:56;14.30;99.90
44229;DHT22;29904;51.058;5.378;2023-05-10T07:17:22;14.30;99.90
44229;DHT22;29904;51.058;5.378;2023-05-10T07:19:48;14.20;99.90
44229;DHT22;29904;51.058;5.378;2023-05-10T07:22:14;14.20;99.90
44229;DHT22;29904;51.058;5.378;2023-05-10T07:24:40;14.20;99.90
44229;DHT22;29904;51.058;5.378;2023-05-10T07:27:06;14.20;99.90
44229;DHT22;29904;51.058;5.378;2023-05-10T07:29:32;14.20;99.90
44229;DHT22;29904;51.058;5.378;2023-05-10T07:31:58;14.20;99.90
44229;DHT22;29904;51.058;5.378;2023-05-10T07:34:24;14.30;99.90
44229;DHT22;29904;51.058;5.378;2023-05-10T07:36:50;14.30;99.90
44229;DHT22;29904;51.058;5.378;2023-05-10T07:39:15;14.30;99.90
44229;DHT22;29904;51.058;5.378;2023-05-10T07:41:42;14.40;99.90
44229;DHT22;29904;51.058;5.378;2023-05-10T07:44:07;14.50;99.90
44229;DHT22;29904;51.058;5.378;2023-05-10T07:46:33;14.40;99.90
44229;DHT22;29904;51.058;5.378;2023-05-10T07:48:59;14.30;99.90
44229;DHT22;29904;51.058;5.378;2023-05-10T07:51:25;14.40;99.90
44229;DHT22;29904;51.058;5.378;2023-05-10T07:53:50;14.30;99.90
44229;DHT22;29904;51.058;5.378;2023-05-10T07:56:27;14.30;99.90
44229;DHT22;29904;51.058;5.378;2023-05-10T07:58:55;14.30;99.90
44229;DHT22;29904;51.058;5.378;2023-05-10T08:01:22;14.20;99.90
44229;DHT22;29904;51.058;5.378;2023-05-10T08:03:48;14.20;99.90
44229;DHT22;29904;51.058;5.378;2023-05-10T08:06:15;14.30;99.90
44229;DHT22;29904;51.058;5.378;2023-05-10T08:08:41;14.20;99.90
44229;DHT22;29904;51.058;5.378;2023-05-10T08:11:07;14.20;99.90
44229;DHT22;29904;51.058;5.378;2023-05-10T08:13:33;14.20;99.90
44229;DHT22;29904;51.058;5.378;2023-05-10T08:15:59;14.20;99.90
44229;DHT22;29904;51.058;5.378;2023-05-10T08:18:26;14.20;99.90
44229;DHT22;29904;51.058;5.378;2023-05-10T08:20:51;14.30;99.90
44229;DHT22;29904;51.058;5.378;2023-05-10T08:23:17;14.30;99.90
44229;DHT22;29904;51.058;5.378;2023-05-10T08:25:43;14.30;99.90
44229;DHT22;29904;51.058;5.378;2023-05-10T08:28:08;14.30;99.90
44229;DHT22;29904;51.058;5.378;2023-05-10T08:30:34;14.30;99.90
44229;DHT22;29904;51.058;5.378;2023-05-10T08:33:00;14.30;99.90
44229;DHT22;29904;51.058;5.378;2023-05-10T08:35:25;14.40;99.90
44229;DHT22;29904;51.058;5.378;2023-05-10T08:37:51;14.40;99.90
44229;DHT22;29904;51.058;5.378;2023-05-10T08:40:19;14.50;99.90
44229;DHT22;29904;51.058;5.378;2023-05-10T08:42:51;14.50;99.90
44229;DHT22;29904;51.058;5.378;2023-05-10T08:45:23;14.60;99.90
44229;DHT22;29904;51.058;5.378;2023-05-10T08:47:50;14.60;99.90
44229;DHT22;29904;51.058;5.378;2023-05-10T08:50:19;14.70;99.90
44229;DHT22;29904;51.058;5.378;2023-05-10T08:52:46;14.60;99.90
44229;DHT22;29904;51.058;5.378;2023-05-10T08:55:14;14.70;99.90
44229;DHT22;29904;51.058;5.378;2023-05-10T08:57:40;14.70;99.90
44229;DHT22;29904;51.058;5.378;2023-05-10T09:00:07;14.80;99.90
44229;DHT22;29904;51.058;5.378;2023-05-10T09:02:34;14.80;99.90
44229;DHT22;29904;51.058;5.378;2023-05-10T09:05:00;14.80;99.90
44229;DHT22;29904;51.058;5.378;2023-05-10T09:07:27;14.90;99.90
44229;DHT22;29904;51.058;5.378;2023-05-10T09:09:54;15.00;99.90
44229;DHT22;29904;51.058;5.378;2023-05-10T09:12:20;15.00;99.90
44229;DHT22;29904;51.058;5.378;2023-05-10T09:14:46;15.00;99.90
44229;DHT22;29904;51.058;5.378;2023-05-10T09:17:13;15.00;99.90
44229;DHT22;29904;51.058;5.378;2023-05-10T09:19:39;15.00;99.90
44229;DHT22;29904;51.058;5.378;2023-05-10T09:22:04;15.00;99.90
44229;DHT22;29904;51.058;5.378;2023-05-10T09:24:30;15.00;99.90
44229;DHT22;29904;51.058;5.378;2023-05-10T09:26:57;14.90;99.90
44229;DHT22;29904;51.058;5.378;2023-05-10T09:29:23;14.90;99.90
44229;DHT22;29904;51.058;5.378;2023-05-10T09:31:50;14.90;99.90
44229;DHT22;29904;51.058;5.378;2023-05-10T09:34:18;14.90;99.90
44229;DHT22;29904;51.058;5.378;2023-05-10T09:36:52;15.00;99.90
44229;DHT22;29904;51.058;5.378;2023-05-10T09:39:18;15.10;99.90
44229;DHT22;29904;51.058;5.378;2023-05-10T09:41:44;15.10;99.90
44229;DHT22;29904;51.058;5.378;2023-05-10T09:44:09;15.10;99.90
44229;DHT22;29904;51.058;5.378;2023-05-10T09:46:35;15.20;99.90
44229;DHT22;29904;51.058;5.378;2023-05-10T09:49:02;15.30;99.90
44229;DHT22;29904;51.058;5.378;2023-05-10T09:51:28;15.40;99.90
44229;DHT22;29904;51.058;5.378;2023-05-10T09:54:14;15.50;99.90
44229;DHT22;29904;51.058;5.378;2023-05-10T09:56:41;15.70;99.90
44229;DHT22;29904;51.058;5.378;2023-05-10T09:59:09;15.60;99.90
44229;DHT22;29904;51.058;5.378;2023-05-10T10:01:36;15.70;99.90
44229;DHT22;29904;51.058;5.378;2023-05-10T10:04:06;15.80;99.90
44229;DHT22;29904;51.058;5.378;2023-05-10T10:06:40;15.90;99.90
44229;DHT22;29904;51.058;5.378;2023-05-10T10:09:07;15.90;99.90
44229;DHT22;29904;51.058;5.378;2023-05-10T10:11:37;15.80;99.90
44229;DHT22;29904;51.058;5.378;2023-05-10T10:14:04;15.90;99.90
44229;DHT22;29904;51.058;5.378;2023-05-10T10:16:30;15.90;99.90
44229;DHT22;29904;51.058;5.378;2023-05-10T10:18:56;15.90;99.90
44229;DHT22;29904;51.058;5.378;2023-05-10T10:21:22;15.90;99.90
44229;DHT22;29904;51.058;5.378;2023-05-10T10:23:48;15.90;99.90
44229;DHT22;29904;51.058;5.378;2023-05-10T10:26:17;16.10;99.90
44229;DHT22;29904;51.058;5.378;2023-05-10T10:31:40;16.30;99.90
44229;DHT22;29904;51.058;5.378;2023-05-10T10:34:10;16.30;99.90
44229;DHT22;29904;51.058;5.378;2023-05-10T10:36:47;16.40;99.90
44229;DHT22;29904;51.058;5.378;2023-05-10T10:39:14;16.50;99.90
44229;DHT22;29904;51.058;5.378;2023-05-10T10:41:50;16.60;99.90
44229;DHT22;29904;51.058;5.378;2023-05-10T10:49:28;17.00;99.90
44229;DHT22;29904;51.058;5.378;2023-05-10T10:52:13;17.00;99.90
44229;DHT22;29904;51.058;5.378;2023-05-10T10:54:39;17.00;99.90
44229;DHT22;29904;51.058;5.378;2023-05-10T10:57:12;17.00;99.90
44229;DHT22;29904;51.058;5.378;2023-05-10T10:59:48;16.90;99.90
44229;DHT22;29904;51.058;5.378;2023-05-10T11:02:34;16.90;99.90
44229;DHT22;29904;51.058;5.378;2023-05-10T11:07:56;16.80;99.90
44229;DHT22;29904;51.058;5.378;2023-05-10T11:10:23;16.90;99.90
44229;DHT22;29904;51.058;5.378;2023-05-10T11:12:58;16.90;99.90
44229;DHT22;29904;51.058;5.378;2023-05-10T11:15:39;16.90;99.90
44229;DHT22;29904;51.058;5.378;2023-05-10T11:18:22;19.40;99.90
44229;DHT22;29904;51.058;5.378;2023-05-10T11:23:18;17.10;99.90
44229;DHT22;29904;51.058;5.378;2023-05-10T11:25:45;17.40;99.90
44229;DHT22;29904;51.058;5.378;2023-05-10T11:28:12;17.50;99.90
44229;DHT22;29904;51.058;5.378;2023-05-10T11:30:39;17.80;99.90
44229;DHT22;29904;51.058;5.378;2023-05-10T11:33:06;18.00;99.90
44229;DHT22;29904;51.058;5.378;2023-05-10T11:35:40;18.10;99.90
44229;DHT22;29904;51.058;5.378;2023-05-10T11:38:15;18.20;99.90
44229;DHT22;29904;51.058;5.378;2023-05-10T11:40:41;18.20;99.90
44229;DHT22;29904;51.058;5.378;2023-05-10T11:43:08;18.10;99.90
44229;DHT22;29904;51.058;5.378;2023-05-10T11:45:35;18.20;99.90
44229;DHT22;29904;51.058;5.378;2023-05-10T11:48:02;18.30;99.90
44229;DHT22;29904;51.058;5.378;2023-05-10T11:50:28;18.40;99.90
44229;DHT22;29904;51.058;5.378;2023-05-10T11:52:57;18.20;99.90
44229;DHT22;29904;51.058;5.378;2023-05-10T11:55:24;18.20;99.90
44229;DHT22;29904;51.058;5.378;2023-05-10T11:57:54;18.10;99.90
44229;DHT22;29904;51.058;5.378;2023-05-10T12:00:20;18.20;99.90
44229;DHT22;29904;51.058;5.378;2023-05-10T12:02:47;18.30;99.90
44229;DHT22;29904;51.058;5.378;2023-05-10T12:05:13;18.20;99.90
44229;DHT22;29904;51.058;5.378;2023-05-10T12:07:39;18.10;99.90
44229;DHT22;29904;51.058;5.378;2023-05-10T12:10:12;18.10;99.90
44229;DHT22;29904;51.058;5.378;2023-05-10T12:12:44;18.10;99.90
44229;DHT22;29904;51.058;5.378;2023-05-10T12:15:31;18.10;99.90
44229;DHT22;29904;51.058;5.378;2023-05-10T12:17:56;18.10;99.90
44229;DHT22;29904;51.058;5.378;2023-05-10T12:20:23;18.00;99.90
44229;DHT22;29904;51.058;5.378;2023-05-10T12:22:51;18.10;99.90
44229;DHT22;29904;51.058;5.378;2023-05-10T12:25:19;18.10;99.90
44229;DHT22;29904;51.058;5.378;2023-05-10T12:27:56;18.10;99.90
44229;DHT22;29904;51.058;5.378;2023-05-10T12:30:23;18.10;99.90
44229;DHT22;29904;51.058;5.378;2023-05-10T12:32:49;18.20;99.90
44229;DHT22;29904;51.058;5.378;2023-05-10T12:35:15;18.30;99.90
44229;DHT22;29904;51.058;5.378;2023-05-10T12:37:43;18.30;99.90
44229;DHT22;29904;51.058;5.378;2023-05-10T12:40:10;18.20;99.90
44229;DHT22;29904;51.058;5.378;2023-05-10T12:42:36;18.10;99.90
44229;DHT22;29904;51.058;5.378;2023-05-10T12:45:04;18.20;99.90
44229;DHT22;29904;51.058;5.378;2023-05-10T12:47:33;18.20;99.90
44229;DHT22;29904;51.058;5.378;2023-05-10T12:50:00;18.20;99.90
44229;DHT22;29904;51.058;5.378;2023-05-10T12:52:27;18.20;99.90
44229;DHT22;29904;51.058;5.378;2023-05-10T12:54:53;18.10;99.90
44229;DHT22;29904;51.058;5.378;2023-05-10T12:57:20;18.10;99.90
44229;DHT22;29904;51.058;5.378;2023-05-10T12:59:46;17.90;99.90
44229;DHT22;29904;51.058;5.378;2023-05-10T13:02:12;17.80;99.90
44229;DHT22;29904;51.058;5.378;2023-05-10T13:04:38;17.70;99.90
44229;DHT22;29904;51.058;5.378;2023-05-10T13:07:08;17.60;99.90
44229;DHT22;29904;51.058;5.378;2023-05-10T13:09:33;17.40;99.90
44229;DHT22;29904;51.058;5.378;2023-05-10T13:11:59;17.30;99.90
44229;DHT22;29904;51.058;5.378;2023-05-10T13:14:25;17.20;99.90
44229;DHT22;29904;51.058;5.378;2023-05-10T13:16:51;17.10;99.90
44229;DHT22;29904;51.058;5.378;2023-05-10T13:19:17;17.00;99.90
44229;DHT22;29904;51.058;5.378;2023-05-10T13:21:43;17.10;99.90
44229;DHT22;29904;51.058;5.378;2023-05-10T13:24:12;17.20;99.90
44229;DHT22;29904;51.058;5.378;2023-05-10T13:26:42;17.20;99.90
44229;DHT22;29904;51.058;5.378;2023-05-10T13:29:08;17.40;99.90
44229;DHT22;29904;51.058;5.378;2023-05-10T13:31:34;17.60;99.90
44229;DHT22;29904;51.058;5.378;2023-05-10T13:34:00;17.80;99.90
44229;DHT22;29904;51.058;5.378;2023-05-10T13:36:26;18.00;99.90
44229;DHT22;29904;51.058;5.378;2023-05-10T13:38:52;18.10;99.90
44229;DHT22;29904;51.058;5.378;2023-05-10T13:41:18;18.10;99.90
44229;DHT22;29904;51.058;5.378;2023-05-10T13:43:44;17.90;99.90
44229;DHT22;29904;51.058;5.378;2023-05-10T13:46:09;17.80;99.90
44229;DHT22;29904;51.058;5.378;2023-05-10T13:48:35;17.80;99.90
44229;DHT22;29904;51.058;5.378;2023-05-10T13:51:03;18.00;99.90
44229;DHT22;29904;51.058;5.378;2023-05-10T13:53:29;18.10;99.90
44229;DHT22;29904;51.058;5.378;2023-05-10T13:55:54;18.10;99.90
44229;DHT22;29904;51.058;5.378;2023-05-10T13:58:20;18.20;99.90
44229;DHT22;29904;51.058;5.378;2023-05-10T14:00:46;18.40;99.90
44229;DHT22;29904;51.058;5.378;2023-05-10T14:03:12;18.50;99.90
44229;DHT22;29904;51.058;5.378;2023-05-10T14:05:38;18.60;99.90
44229;DHT22;29904;51.058;5.378;2023-05-10T14:08:03;18.60;99.90
44229;DHT22;29904;51.058;5.378;2023-05-10T14:10:29;18.50;99.90
44229;DHT22;29904;51.058;5.378;2023-05-10T14:12:55;18.40;99.90
44229;DHT22;29904;51.058;5.378;2023-05-10T14:15:21;18.50;99.90
44229;DHT22;29904;51.058;5.378;2023-05-10T14:17:47;18.50;99.90
44229;DHT22;29904;51.058;5.378;2023-05-10T14:20:13;18.40;99.90
44229;DHT22;29904;51.058;5.378;2023-05-10T14:22:39;18.40;99.90
44229;DHT22;29904;51.058;5.378;2023-05-10T14:25:05;18.30;99.90
44229;DHT22;29904;51.058;5.378;2023-05-10T14:27:32;18.30;99.90
44229;DHT22;29904;51.058;5.378;2023-05-10T14:29:58;18.30;99.90
44229;DHT22;29904;51.058;5.378;2023-05-10T14:32:23;18.20;99.90
44229;DHT22;29904;51.058;5.378;2023-05-10T14:34:49;18.10;99.90
44229;DHT22;29904;51.058;5.378;2023-05-10T14:37:16;18.00;99.90
44229;DHT22;29904;51.058;5.378;2023-05-10T14:39:42;17.90;99.90
44229;DHT22;29904;51.058;5.378;2023-05-10T14:42:08;17.80;99.90
44229;DHT22;29904;51.058;5.378;2023-05-10T14:44:34;17.80;99.90
44229;DHT22;29904;51.058;5.378;2023-05-10T14:47:00;17.80;99.90
44229;DHT22;29904;51.058;5.378;2023-05-10T14:49:26;17.90;99.90
44229;DHT22;29904;51.058;5.378;2023-05-10T14:51:52;18.00;99.90
44229;DHT22;29904;51.058;5.378;2023-05-10T14:54:17;18.00;99.90
44229;DHT22;29904;51.058;5.378;2023-05-10T14:56:43;18.00;99.90
44229;DHT22;29904;51.058;5.378;2023-05-10T14:59:09;17.90;99.90
44229;DHT22;29904;51.058;5.378;2023-05-10T15:01:35;17.80;99.90
44229;DHT22;29904;51.058;5.378;2023-05-10T15:04:03;17.70;99.90
44229;DHT22;29904;51.058;5.378;2023-05-10T15:06:34;17.70;99.90
44229;DHT22;29904;51.058;5.378;2023-05-10T15:09:00;17.70;99.90
44229;DHT22;29904;51.058;5.378;2023-05-10T15:11:26;17.60;99.90
44229;DHT22;29904;51.058;5.378;2023-05-10T15:13:52;17.70;99.90
44229;DHT22;29904;51.058;5.378;2023-05-10T15:16:18;17.80;99.90
44229;DHT22;29904;51.058;5.378;2023-05-10T15:18:44;17.70;99.90
44229;DHT22;29904;51.058;5.378;2023-05-10T15:21:11;17.70;99.90
44229;DHT22;29904;51.058;5.378;2023-05-10T15:23:37;17.70;99.90
44229;DHT22;29904;51.058;5.378;2023-05-10T15:26:02;17.70;99.90
44229;DHT22;29904;51.058;5.378;2023-05-10T15:28:28;17.70;99.90
44229;DHT22;29904;51.058;5.378;2023-05-10T15:30:54;17.70;99.90
44229;DHT22;29904;51.058;5.378;2023-05-10T15:33:20;17.60;99.90
44229;DHT22;29904;51.058;5.378;2023-05-10T15:35:46;17.50;99.90
44229;DHT22;29904;51.058;5.378;2023-05-10T15:38:12;17.30;99.90
44229;DHT22;29904;51.058;5.378;2023-05-10T15:40:37;17.30;99.90
44229;DHT22;29904;51.058;5.378;2023-05-10T15:43:03;17.10;99.90
44229;DHT22;29904;51.058;5.378;2023-05-10T15:45:30;17.10;99.90
44229;DHT22;29904;51.058;5.378;2023-05-10T15:47:57;16.80;99.90
44229;DHT22;29904;51.058;5.378;2023-05-10T15:50:23;16.50;99.90
44229;DHT22;29904;51.058;5.378;2023-05-10T15:52:48;16.20;99.90
44229;DHT22;29904;51.058;5.378;2023-05-10T15:55:14;16.00;99.90
44229;DHT22;29904;51.058;5.378;2023-05-10T15:57:41;15.80;99.90
44229;DHT22;29904;51.058;5.378;2023-05-10T16:00:09;15.60;99.90
44229;DHT22;29904;51.058;5.378;2023-05-10T16:02:35;15.50;99.90
44229;DHT22;29904;51.058;5.378;2023-05-10T16:05:02;15.40;99.90
44229;DHT22;29904;51.058;5.378;2023-05-10T16:07:27;15.30;99.90